sensor_id;sensor_type;location;lat;lon;timestamp;P1;durP1;ratioP1;P2;durP2;ratioP2
52542;SDS011;38449;52.696;6.186;2024-01-11T00:01:49;27.65;;;17.05;;
52542;SDS011;38449;52.696;6.186;2024-01-11T00:04:15;29.25;;;17.05;;
52542;SDS011;38449;52.696;6.186;2024-01-11T00:06:42;31.65;;;19.50;;
52542;SDS011;38449;52.696;6.186;2024-01-11T00:09:09;29.30;;;18.13;;
52542;SDS011;38449;52.696;6.186;2024-01-11T00:11:35;87.57;;;22.10;;
52542;SDS011;38449;52.696;6.186;2024-01-11T00:14:02;30.73;;;19.08;;
52542;SDS011;38449;52.696;6.186;2024-01-11T00:16:28;32.50;;;18.85;;
52542;SDS011;38449;52.696;6.186;2024-01-11T00:18:55;29.60;;;18.30;;
52542;SDS011;38449;52.696;6.186;2024-01-11T00:21:21;30.15;;;18.35;;
52542;SDS011;38449;52.696;6.186;2024-01-11T00:26:14;33.30;;;17.67;;
52542;SDS011;38449;52.696;6.186;2024-01-11T00:31:07;30.73;;;17.55;;
52542;SDS011;38449;52.696;6.186;2024-01-11T00:33:33;31.15;;;18.58;;
52542;SDS011;38449;52.696;6.186;2024-01-11T00:35:59;30.17;;;17.38;;
52542;SDS011;38449;52.696;6.186;2024-01-11T00:38:26;35.45;;;18.70;;
52542;SDS011;38449;52.696;6.186;2024-01-11T00:40:52;31.67;;;17.95;;
52542;SDS011;38449;52.696;6.186;2024-01-11T00:43:19;28.08;;;17.83;;
52542;SDS011;38449;52.696;6.186;2024-01-11T00:45:45;32.63;;;18.88;;
52542;SDS011;38449;52.696;6.186;2024-01-11T00:50:38;31.75;;;17.85;;
52542;SDS011;38449;52.696;6.186;2024-01-11T00:53:04;33.10;;;18.55;;
52542;SDS011;38449;52.696;6.186;2024-01-11T00:55:31;27.20;;;16.58;;
52542;SDS011;38449;52.696;6.186;2024-01-11T00:57:57;34.85;;;19.10;;
52542;SDS011;38449;52.696;6.186;2024-01-11T01:00:23;31.63;;;17.83;;
52542;SDS011;38449;52.696;6.186;2024-01-11T01:02:49;31.92;;;18.67;;
52542;SDS011;38449;52.696;6.186;2024-01-11T01:05:16;34.78;;;19.25;;
52542;SDS011;38449;52.696;6.186;2024-01-11T01:07:42;31.23;;;20.45;;
52542;SDS011;38449;52.696;6.186;2024-01-11T01:10:09;36.00;;;21.35;;
52542;SDS011;38449;52.696;6.186;2024-01-11T01:12:35;31.85;;;19.65;;
52542;SDS011;38449;52.696;6.186;2024-01-11T01:15:01;35.88;;;22.15;;
52542;SDS011;38449;52.696;6.186;2024-01-11T01:17:27;32.03;;;18.10;;
52542;SDS011;38449;52.696;6.186;2024-01-11T01:19:54;31.67;;;17.77;;
52542;SDS011;38449;52.696;6.186;2024-01-11T01:22:20;32.80;;;19.00;;
52542;SDS011;38449;52.696;6.186;2024-01-11T01:24:46;35.35;;;18.45;;
52542;SDS011;38449;52.696;6.186;2024-01-11T01:27:12;33.05;;;19.45;;
52542;SDS011;38449;52.696;6.186;2024-01-11T01:29:39;32.55;;;19.17;;
52542;SDS011;38449;52.696;6.186;2024-01-11T01:32:05;31.27;;;18.20;;
52542;SDS011;38449;52.696;6.186;2024-01-11T01:34:31;32.20;;;20.50;;
52542;SDS011;38449;52.696;6.186;2024-01-11T01:36:59;33.28;;;18.90;;
52542;SDS011;38449;52.696;6.186;2024-01-11T01:39:25;31.52;;;18.25;;
52542;SDS011;38449;52.696;6.186;2024-01-11T01:41:53;38.13;;;22.33;;
52542;SDS011;38449;52.696;6.186;2024-01-11T01:44:19;33.22;;;18.38;;
52542;SDS011;38449;52.696;6.186;2024-01-11T01:46:46;33.90;;;19.98;;
52542;SDS011;38449;52.696;6.186;2024-01-11T01:49:14;35.22;;;21.10;;
52542;SDS011;38449;52.696;6.186;2024-01-11T01:51:44;39.22;;;20.23;;
52542;SDS011;38449;52.696;6.186;2024-01-11T01:54:11;37.83;;;20.88;;
52542;SDS011;38449;52.696;6.186;2024-01-11T01:56:37;32.67;;;18.80;;
52542;SDS011;38449;52.696;6.186;2024-01-11T01:59:03;35.55;;;19.38;;
52542;SDS011;38449;52.696;6.186;2024-01-11T02:01:30;31.10;;;18.15;;
52542;SDS011;38449;52.696;6.186;2024-01-11T02:03:58;35.53;;;21.58;;
52542;SDS011;38449;52.696;6.186;2024-01-11T02:06:25;33.10;;;19.27;;
52542;SDS011;38449;52.696;6.186;2024-01-11T02:08:53;35.15;;;19.40;;
52542;SDS011;38449;52.696;6.186;2024-01-11T02:11:22;32.28;;;18.67;;
52542;SDS011;38449;52.696;6.186;2024-01-11T02:13:50;35.28;;;18.45;;
52542;SDS011;38449;52.696;6.186;2024-01-11T02:16:16;33.45;;;18.50;;
52542;SDS011;38449;52.696;6.186;2024-01-11T02:18:43;34.63;;;18.92;;
52542;SDS011;38449;52.696;6.186;2024-01-11T02:21:09;34.85;;;18.33;;
52542;SDS011;38449;52.696;6.186;2024-01-11T02:23:42;34.03;;;18.45;;
52542;SDS011;38449;52.696;6.186;2024-01-11T02:26:13;31.65;;;19.08;;
52542;SDS011;38449;52.696;6.186;2024-01-11T02:28:44;34.55;;;18.95;;
52542;SDS011;38449;52.696;6.186;2024-01-11T02:31:11;32.38;;;19.17;;
52542;SDS011;38449;52.696;6.186;2024-01-11T02:33:39;34.55;;;20.27;;
52542;SDS011;38449;52.696;6.186;2024-01-11T02:36:06;43.10;;;20.35;;
52542;SDS011;38449;52.696;6.186;2024-01-11T02:38:33;32.13;;;18.65;;
52542;SDS011;38449;52.696;6.186;2024-01-11T02:41:00;30.23;;;17.92;;
52542;SDS011;38449;52.696;6.186;2024-01-11T02:43:27;35.50;;;18.65;;
52542;SDS011;38449;52.696;6.186;2024-01-11T02:45:56;32.05;;;19.02;;
52542;SDS011;38449;52.696;6.186;2024-01-11T02:48:27;34.42;;;18.60;;
52542;SDS011;38449;52.696;6.186;2024-01-11T02:50:54;34.33;;;18.48;;
52542;SDS011;38449;52.696;6.186;2024-01-11T02:53:24;33.50;;;20.35;;
52542;SDS011;38449;52.696;6.186;2024-01-11T02:55:50;33.08;;;18.65;;
52542;SDS011;38449;52.696;6.186;2024-01-11T02:58:17;33.38;;;18.30;;
52542;SDS011;38449;52.696;6.186;2024-01-11T03:03:09;33.50;;;17.75;;
52542;SDS011;38449;52.696;6.186;2024-01-11T03:05:35;34.45;;;18.58;;
52542;SDS011;38449;52.696;6.186;2024-01-11T03:08:02;32.42;;;18.83;;
52542;SDS011;38449;52.696;6.186;2024-01-11T03:12:54;33.20;;;18.40;;
52542;SDS011;38449;52.696;6.186;2024-01-11T03:15:23;34.55;;;19.77;;
52542;SDS011;38449;52.696;6.186;2024-01-11T03:17:49;33.58;;;18.38;;
52542;SDS011;38449;52.696;6.186;2024-01-11T03:20:16;31.05;;;19.95;;
52542;SDS011;38449;52.696;6.186;2024-01-11T03:22:46;34.25;;;18.23;;
52542;SDS011;38449;52.696;6.186;2024-01-11T03:25:12;40.08;;;19.35;;
52542;SDS011;38449;52.696;6.186;2024-01-11T03:27:39;37.53;;;19.77;;
52542;SDS011;38449;52.696;6.186;2024-01-11T03:30:05;34.60;;;18.73;;
52542;SDS011;38449;52.696;6.186;2024-01-11T03:32:32;35.50;;;19.63;;
52542;SDS011;38449;52.696;6.186;2024-01-11T03:34:58;34.65;;;18.33;;
52542;SDS011;38449;52.696;6.186;2024-01-11T03:37:24;31.38;;;18.02;;
52542;SDS011;38449;52.696;6.186;2024-01-11T03:39:51;34.83;;;18.95;;
52542;SDS011;38449;52.696;6.186;2024-01-11T03:42:17;33.90;;;18.35;;
52542;SDS011;38449;52.696;6.186;2024-01-11T03:44:43;36.63;;;18.80;;
52542;SDS011;38449;52.696;6.186;2024-01-11T03:47:09;35.30;;;19.60;;
52542;SDS011;38449;52.696;6.186;2024-01-11T03:49:35;34.55;;;19.52;;
52542;SDS011;38449;52.696;6.186;2024-01-11T03:52:03;34.63;;;20.63;;
52542;SDS011;38449;52.696;6.186;2024-01-11T03:54:30;37.03;;;19.42;;
52542;SDS011;38449;52.696;6.186;2024-01-11T03:56:56;35.63;;;19.13;;
52542;SDS011;38449;52.696;6.186;2024-01-11T03:59:23;36.33;;;19.63;;
52542;SDS011;38449;52.696;6.186;2024-01-11T04:01:49;35.47;;;19.17;;
52542;SDS011;38449;52.696;6.186;2024-01-11T04:06:42;37.60;;;19.17;;
52542;SDS011;38449;52.696;6.186;2024-01-11T04:09:09;35.78;;;19.83;;
52542;SDS011;38449;52.696;6.186;2024-01-11T04:11:35;29.35;;;17.20;;
52542;SDS011;38449;52.696;6.186;2024-01-11T04:14:02;36.17;;;19.60;;
52542;SDS011;38449;52.696;6.186;2024-01-11T04:18:54;36.38;;;19.95;;
52542;SDS011;38449;52.696;6.186;2024-01-11T04:21:24;36.42;;;19.02;;
52542;SDS011;38449;52.696;6.186;2024-01-11T04:23:56;35.92;;;18.35;;
52542;SDS011;38449;52.696;6.186;2024-01-11T04:26:22;37.40;;;20.80;;
52542;SDS011;38449;52.696;6.186;2024-01-11T04:28:49;36.05;;;19.77;;
52542;SDS011;38449;52.696;6.186;2024-01-11T04:31:16;32.33;;;17.25;;
52542;SDS011;38449;52.696;6.186;2024-01-11T04:33:44;33.08;;;18.92;;
52542;SDS011;38449;52.696;6.186;2024-01-11T04:36:11;32.78;;;17.52;;
52542;SDS011;38449;52.696;6.186;2024-01-11T04:38:38;33.63;;;17.95;;
52542;SDS011;38449;52.696;6.186;2024-01-11T04:41:07;31.95;;;17.83;;
52542;SDS011;38449;52.696;6.186;2024-01-11T04:43:41;31.10;;;17.25;;
52542;SDS011;38449;52.696;6.186;2024-01-11T04:46:12;32.60;;;18.20;;
52542;SDS011;38449;52.696;6.186;2024-01-11T04:48:39;34.90;;;20.25;;
52542;SDS011;38449;52.696;6.186;2024-01-11T04:53:32;33.47;;;17.77;;
52542;SDS011;38449;52.696;6.186;2024-01-11T04:55:58;34.33;;;18.88;;
52542;SDS011;38449;52.696;6.186;2024-01-11T04:58:25;36.38;;;19.27;;
52542;SDS011;38449;52.696;6.186;2024-01-11T05:00:51;38.70;;;20.80;;
52542;SDS011;38449;52.696;6.186;2024-01-11T05:03:17;34.53;;;19.70;;
52542;SDS011;38449;52.696;6.186;2024-01-11T05:05:43;32.63;;;18.40;;
52542;SDS011;38449;52.696;6.186;2024-01-11T05:08:10;33.45;;;20.38;;
52542;SDS011;38449;52.696;6.186;2024-01-11T05:10:36;34.90;;;19.88;;
52542;SDS011;38449;52.696;6.186;2024-01-11T05:13:02;35.65;;;19.27;;
52542;SDS011;38449;52.696;6.186;2024-01-11T05:17:55;36.05;;;18.52;;
52542;SDS011;38449;52.696;6.186;2024-01-11T05:20:22;38.15;;;18.88;;
52542;SDS011;38449;52.696;6.186;2024-01-11T05:22:48;33.25;;;19.42;;
52542;SDS011;38449;52.696;6.186;2024-01-11T05:25:15;35.83;;;19.50;;
52542;SDS011;38449;52.696;6.186;2024-01-11T05:27:43;35.08;;;20.70;;
52542;SDS011;38449;52.696;6.186;2024-01-11T05:30:09;38.40;;;20.83;;
52542;SDS011;38449;52.696;6.186;2024-01-11T05:32:36;34.92;;;20.00;;
52542;SDS011;38449;52.696;6.186;2024-01-11T05:35:02;36.55;;;19.63;;
52542;SDS011;38449;52.696;6.186;2024-01-11T05:39:54;41.22;;;21.23;;
52542;SDS011;38449;52.696;6.186;2024-01-11T05:42:23;43.05;;;21.25;;
52542;SDS011;38449;52.696;6.186;2024-01-11T05:44:51;39.75;;;21.17;;
52542;SDS011;38449;52.696;6.186;2024-01-11T05:47:19;38.38;;;20.75;;
52542;SDS011;38449;52.696;6.186;2024-01-11T05:49:45;36.05;;;20.60;;
52542;SDS011;38449;52.696;6.186;2024-01-11T05:52:13;40.83;;;20.85;;
52542;SDS011;38449;52.696;6.186;2024-01-11T05:54:39;40.55;;;21.92;;
52542;SDS011;38449;52.696;6.186;2024-01-11T05:57:07;37.00;;;19.73;;
52542;SDS011;38449;52.696;6.186;2024-01-11T05:59:33;40.50;;;21.42;;
52542;SDS011;38449;52.696;6.186;2024-01-11T06:01:59;35.35;;;19.15;;
52542;SDS011;38449;52.696;6.186;2024-01-11T06:04:27;37.53;;;19.77;;
52542;SDS011;38449;52.696;6.186;2024-01-11T06:06:54;36.75;;;21.17;;
52542;SDS011;38449;52.696;6.186;2024-01-11T06:09:20;35.65;;;19.92;;
52542;SDS011;38449;52.696;6.186;2024-01-11T06:11:46;39.13;;;20.33;;
52542;SDS011;38449;52.696;6.186;2024-01-11T06:14:12;38.33;;;20.67;;
52542;SDS011;38449;52.696;6.186;2024-01-11T06:16:40;38.33;;;19.92;;
52542;SDS011;38449;52.696;6.186;2024-01-11T06:19:06;38.97;;;21.00;;
52542;SDS011;38449;52.696;6.186;2024-01-11T06:21:34;41.63;;;22.13;;
52542;SDS011;38449;52.696;6.186;2024-01-11T06:24:01;38.22;;;20.83;;
52542;SDS011;38449;52.696;6.186;2024-01-11T06:26:29;36.95;;;20.05;;
52542;SDS011;38449;52.696;6.186;2024-01-11T06:28:56;40.20;;;20.02;;
52542;SDS011;38449;52.696;6.186;2024-01-11T06:33:48;42.65;;;19.85;;
52542;SDS011;38449;52.696;6.186;2024-01-11T06:36:14;40.47;;;21.10;;
52542;SDS011;38449;52.696;6.186;2024-01-11T06:38:41;38.00;;;20.95;;
52542;SDS011;38449;52.696;6.186;2024-01-11T06:41:07;39.15;;;20.98;;
52542;SDS011;38449;52.696;6.186;2024-01-11T06:43:33;35.70;;;19.90;;
52542;SDS011;38449;52.696;6.186;2024-01-11T06:46:03;39.83;;;20.58;;
52542;SDS011;38449;52.696;6.186;2024-01-11T06:48:31;38.40;;;20.60;;
52542;SDS011;38449;52.696;6.186;2024-01-11T06:50:57;36.10;;;19.45;;
52542;SDS011;38449;52.696;6.186;2024-01-11T06:55:50;35.22;;;20.35;;
52542;SDS011;38449;52.696;6.186;2024-01-11T06:58:20;38.95;;;20.13;;
52542;SDS011;38449;52.696;6.186;2024-01-11T07:00:48;39.72;;;20.90;;
52542;SDS011;38449;52.696;6.186;2024-01-11T07:03:15;38.28;;;20.83;;
52542;SDS011;38449;52.696;6.186;2024-01-11T07:05:42;39.13;;;21.33;;
52542;SDS011;38449;52.696;6.186;2024-01-11T07:10:35;38.38;;;20.13;;
52542;SDS011;38449;52.696;6.186;2024-01-11T07:13:01;36.00;;;18.95;;
52542;SDS011;38449;52.696;6.186;2024-01-11T07:17:54;37.85;;;20.10;;
52542;SDS011;38449;52.696;6.186;2024-01-11T07:20:20;35.70;;;18.80;;
52542;SDS011;38449;52.696;6.186;2024-01-11T07:22:46;37.20;;;20.33;;
52542;SDS011;38449;52.696;6.186;2024-01-11T07:25:12;36.58;;;19.23;;
52542;SDS011;38449;52.696;6.186;2024-01-11T07:27:39;39.25;;;20.35;;
52542;SDS011;38449;52.696;6.186;2024-01-11T07:30:06;41.05;;;20.15;;
52542;SDS011;38449;52.696;6.186;2024-01-11T07:32:34;36.30;;;20.33;;
52542;SDS011;38449;52.696;6.186;2024-01-11T07:35:00;39.22;;;21.13;;
52542;SDS011;38449;52.696;6.186;2024-01-11T07:39:53;38.47;;;20.63;;
52542;SDS011;38449;52.696;6.186;2024-01-11T07:42:19;32.85;;;19.73;;
52542;SDS011;38449;52.696;6.186;2024-01-11T07:44:46;39.75;;;21.60;;
52542;SDS011;38449;52.696;6.186;2024-01-11T07:47:12;40.58;;;21.08;;
52542;SDS011;38449;52.696;6.186;2024-01-11T07:52:08;35.25;;;19.63;;
52542;SDS011;38449;52.696;6.186;2024-01-11T07:54:35;35.83;;;21.17;;
52542;SDS011;38449;52.696;6.186;2024-01-11T07:57:01;38.90;;;20.35;;
52542;SDS011;38449;52.696;6.186;2024-01-11T07:59:32;35.22;;;20.33;;
52542;SDS011;38449;52.696;6.186;2024-01-11T08:01:58;36.17;;;20.63;;
52542;SDS011;38449;52.696;6.186;2024-01-11T08:04:25;35.85;;;18.73;;
52542;SDS011;38449;52.696;6.186;2024-01-11T08:06:51;34.97;;;20.23;;
52542;SDS011;38449;52.696;6.186;2024-01-11T08:09:18;36.95;;;20.67;;
52542;SDS011;38449;52.696;6.186;2024-01-11T08:11:45;32.20;;;19.80;;
52542;SDS011;38449;52.696;6.186;2024-01-11T08:14:11;37.30;;;20.27;;
52542;SDS011;38449;52.696;6.186;2024-01-11T08:16:39;41.22;;;20.95;;
52542;SDS011;38449;52.696;6.186;2024-01-11T08:19:06;36.90;;;20.05;;
52542;SDS011;38449;52.696;6.186;2024-01-11T08:23:58;34.67;;;18.30;;
52542;SDS011;38449;52.696;6.186;2024-01-11T08:26:24;38.25;;;20.83;;
52542;SDS011;38449;52.696;6.186;2024-01-11T08:28:51;37.40;;;22.67;;
52542;SDS011;38449;52.696;6.186;2024-01-11T08:31:17;38.15;;;21.90;;
52542;SDS011;38449;52.696;6.186;2024-01-11T08:33:44;40.92;;;24.02;;
52542;SDS011;38449;52.696;6.186;2024-01-11T08:36:11;40.88;;;23.30;;
52542;SDS011;38449;52.696;6.186;2024-01-11T08:41:04;40.38;;;22.15;;
52542;SDS011;38449;52.696;6.186;2024-01-11T08:43:30;41.20;;;23.90;;
52542;SDS011;38449;52.696;6.186;2024-01-11T08:45:57;45.90;;;25.55;;
52542;SDS011;38449;52.696;6.186;2024-01-11T08:50:49;39.47;;;23.42;;
52542;SDS011;38449;52.696;6.186;2024-01-11T08:55:42;41.58;;;24.58;;
52542;SDS011;38449;52.696;6.186;2024-01-11T08:58:08;41.30;;;25.80;;
52542;SDS011;38449;52.696;6.186;2024-01-11T09:00:36;43.90;;;25.92;;
52542;SDS011;38449;52.696;6.186;2024-01-11T09:03:03;39.28;;;24.95;;
52542;SDS011;38449;52.696;6.186;2024-01-11T09:05:30;39.38;;;22.35;;
52542;SDS011;38449;52.696;6.186;2024-01-11T09:07:57;40.63;;;24.05;;
52542;SDS011;38449;52.696;6.186;2024-01-11T09:10:23;42.20;;;25.50;;
52542;SDS011;38449;52.696;6.186;2024-01-11T09:15:16;41.67;;;23.77;;
52542;SDS011;38449;52.696;6.186;2024-01-11T09:20:08;39.05;;;22.45;;
52542;SDS011;38449;52.696;6.186;2024-01-11T09:22:38;38.70;;;21.35;;
52542;SDS011;38449;52.696;6.186;2024-01-11T09:27:32;39.33;;;20.85;;
52542;SDS011;38449;52.696;6.186;2024-01-11T09:29:59;41.70;;;21.35;;
52542;SDS011;38449;52.696;6.186;2024-01-11T09:32:25;38.08;;;20.73;;
52542;SDS011;38449;52.696;6.186;2024-01-11T09:37:17;40.92;;;21.30;;
52542;SDS011;38449;52.696;6.186;2024-01-11T09:39:46;40.08;;;24.27;;
52542;SDS011;38449;52.696;6.186;2024-01-11T09:42:13;42.53;;;24.90;;
52542;SDS011;38449;52.696;6.186;2024-01-11T09:47:08;52.30;;;31.15;;
52542;SDS011;38449;52.696;6.186;2024-01-11T09:49:36;99.50;;;56.90;;
52542;SDS011;38449;52.696;6.186;2024-01-11T09:52:04;89.18;;;49.40;;
52542;SDS011;38449;52.696;6.186;2024-01-11T09:54:31;64.57;;;38.08;;
52542;SDS011;38449;52.696;6.186;2024-01-11T09:59:24;37.40;;;20.42;;
52542;SDS011;38449;52.696;6.186;2024-01-11T10:01:52;40.30;;;21.90;;
52542;SDS011;38449;52.696;6.186;2024-01-11T10:04:18;36.63;;;20.02;;
52542;SDS011;38449;52.696;6.186;2024-01-11T10:09:11;34.40;;;20.75;;
52542;SDS011;38449;52.696;6.186;2024-01-11T10:11:38;36.72;;;21.80;;
52542;SDS011;38449;52.696;6.186;2024-01-11T10:14:05;41.10;;;21.48;;
52542;SDS011;38449;52.696;6.186;2024-01-11T10:16:32;35.03;;;21.63;;
52542;SDS011;38449;52.696;6.186;2024-01-11T10:21:27;34.42;;;20.45;;
52542;SDS011;38449;52.696;6.186;2024-01-11T10:23:57;36.42;;;20.63;;
52542;SDS011;38449;52.696;6.186;2024-01-11T10:26:24;37.45;;;20.15;;
52542;SDS011;38449;52.696;6.186;2024-01-11T10:28:50;38.08;;;20.38;;
52542;SDS011;38449;52.696;6.186;2024-01-11T10:33:44;34.40;;;19.75;;
52542;SDS011;38449;52.696;6.186;2024-01-11T10:36:11;37.22;;;21.17;;
52542;SDS011;38449;52.696;6.186;2024-01-11T10:38:38;39.80;;;20.70;;
52542;SDS011;38449;52.696;6.186;2024-01-11T10:41:05;39.13;;;20.35;;
52542;SDS011;38449;52.696;6.186;2024-01-11T10:43:32;39.60;;;22.17;;
52542;SDS011;38449;52.696;6.186;2024-01-11T10:46:03;34.42;;;19.05;;
52542;SDS011;38449;52.696;6.186;2024-01-11T10:48:33;34.28;;;18.50;;
52542;SDS011;38449;52.696;6.186;2024-01-11T10:51:09;32.55;;;18.83;;
52542;SDS011;38449;52.696;6.186;2024-01-11T10:53:41;32.90;;;18.73;;
52542;SDS011;38449;52.696;6.186;2024-01-11T10:56:13;32.90;;;19.17;;
52542;SDS011;38449;52.696;6.186;2024-01-11T10:58:44;33.60;;;18.23;;
52542;SDS011;38449;52.696;6.186;2024-01-11T11:01:11;34.40;;;20.20;;
52542;SDS011;38449;52.696;6.186;2024-01-11T11:03:38;34.88;;;20.00;;
52542;SDS011;38449;52.696;6.186;2024-01-11T11:06:07;35.85;;;20.42;;
52542;SDS011;38449;52.696;6.186;2024-01-11T11:08:34;36.95;;;22.85;;
52542;SDS011;38449;52.696;6.186;2024-01-11T11:11:03;37.67;;;21.15;;
52542;SDS011;38449;52.696;6.186;2024-01-11T11:13:33;37.13;;;22.42;;
52542;SDS011;38449;52.696;6.186;2024-01-11T11:16:02;39.70;;;23.92;;
52542;SDS011;38449;52.696;6.186;2024-01-11T11:18:29;38.20;;;21.80;;
52542;SDS011;38449;52.696;6.186;2024-01-11T11:20:57;38.55;;;22.92;;
52542;SDS011;38449;52.696;6.186;2024-01-11T11:23:25;36.15;;;24.52;;
52542;SDS011;38449;52.696;6.186;2024-01-11T11:28:20;36.15;;;20.15;;
52542;SDS011;38449;52.696;6.186;2024-01-11T11:30:48;38.35;;;20.65;;
52542;SDS011;38449;52.696;6.186;2024-01-11T11:33:21;41.88;;;22.52;;
52542;SDS011;38449;52.696;6.186;2024-01-11T11:35:53;47.72;;;22.38;;
52542;SDS011;38449;52.696;6.186;2024-01-11T11:38:23;45.05;;;22.42;;
52542;SDS011;38449;52.696;6.186;2024-01-11T11:40:54;46.25;;;23.65;;
52542;SDS011;38449;52.696;6.186;2024-01-11T11:43:22;41.70;;;24.20;;
52542;SDS011;38449;52.696;6.186;2024-01-11T11:45:50;40.05;;;22.30;;
52542;SDS011;38449;52.696;6.186;2024-01-11T11:51:12;39.53;;;21.20;;
52542;SDS011;38449;52.696;6.186;2024-01-11T11:53:45;45.47;;;22.17;;
52542;SDS011;38449;52.696;6.186;2024-01-11T11:56:19;41.45;;;20.77;;
52542;SDS011;38449;52.696;6.186;2024-01-11T11:58:46;38.58;;;20.75;;
52542;SDS011;38449;52.696;6.186;2024-01-11T12:01:14;43.50;;;22.02;;
52542;SDS011;38449;52.696;6.186;2024-01-11T12:03:41;44.45;;;22.80;;
52542;SDS011;38449;52.696;6.186;2024-01-11T12:06:12;44.42;;;22.92;;
52542;SDS011;38449;52.696;6.186;2024-01-11T12:08:41;40.00;;;21.92;;
52542;SDS011;38449;52.696;6.186;2024-01-11T12:11:08;40.35;;;22.33;;
52542;SDS011;38449;52.696;6.186;2024-01-11T12:13:38;38.28;;;21.67;;
52542;SDS011;38449;52.696;6.186;2024-01-11T12:16:05;36.78;;;20.00;;
52542;SDS011;38449;52.696;6.186;2024-01-11T12:18:31;36.90;;;20.27;;
52542;SDS011;38449;52.696;6.186;2024-01-11T12:20:58;34.13;;;19.40;;
52542;SDS011;38449;52.696;6.186;2024-01-11T12:23:25;32.70;;;19.10;;
52542;SDS011;38449;52.696;6.186;2024-01-11T12:25:56;32.00;;;18.30;;
52542;SDS011;38449;52.696;6.186;2024-01-11T12:28:23;33.13;;;19.42;;
52542;SDS011;38449;52.696;6.186;2024-01-11T12:30:50;31.63;;;17.67;;
52542;SDS011;38449;52.696;6.186;2024-01-11T12:33:16;32.00;;;17.83;;
52542;SDS011;38449;52.696;6.186;2024-01-11T12:35:44;32.25;;;18.98;;
52542;SDS011;38449;52.696;6.186;2024-01-11T12:38:11;29.40;;;17.67;;
52542;SDS011;38449;52.696;6.186;2024-01-11T12:40:37;28.98;;;18.15;;
52542;SDS011;38449;52.696;6.186;2024-01-11T12:43:04;31.60;;;17.23;;
52542;SDS011;38449;52.696;6.186;2024-01-11T12:45:31;32.55;;;18.05;;
52542;SDS011;38449;52.696;6.186;2024-01-11T12:47:59;30.63;;;17.92;;
52542;SDS011;38449;52.696;6.186;2024-01-11T12:50:29;33.28;;;19.15;;
52542;SDS011;38449;52.696;6.186;2024-01-11T12:53:09;29.10;;;18.23;;
52542;SDS011;38449;52.696;6.186;2024-01-11T12:55:45;28.40;;;16.20;;
52542;SDS011;38449;52.696;6.186;2024-01-11T12:58:13;34.40;;;17.30;;
52542;SDS011;38449;52.696;6.186;2024-01-11T13:00:44;30.52;;;18.77;;
52542;SDS011;38449;52.696;6.186;2024-01-11T13:03:11;30.67;;;17.35;;
52542;SDS011;38449;52.696;6.186;2024-01-11T13:05:37;29.65;;;17.88;;
52542;SDS011;38449;52.696;6.186;2024-01-11T13:08:08;29.42;;;17.75;;
52542;SDS011;38449;52.696;6.186;2024-01-11T13:10:35;30.52;;;17.95;;
52542;SDS011;38449;52.696;6.186;2024-01-11T13:13:02;31.25;;;19.08;;
52542;SDS011;38449;52.696;6.186;2024-01-11T13:15:29;30.92;;;17.95;;
52542;SDS011;38449;52.696;6.186;2024-01-11T13:17:57;32.67;;;18.60;;
52542;SDS011;38449;52.696;6.186;2024-01-11T13:20:24;34.97;;;19.13;;
52542;SDS011;38449;52.696;6.186;2024-01-11T13:25:39;34.75;;;19.10;;
52542;SDS011;38449;52.696;6.186;2024-01-11T13:28:07;31.65;;;18.67;;
52542;SDS011;38449;52.696;6.186;2024-01-11T13:30:34;34.97;;;19.23;;
52542;SDS011;38449;52.696;6.186;2024-01-11T13:33:01;31.63;;;19.08;;
52542;SDS011;38449;52.696;6.186;2024-01-11T13:35:28;38.25;;;20.92;;
52542;SDS011;38449;52.696;6.186;2024-01-11T13:37:54;32.22;;;19.02;;
52542;SDS011;38449;52.696;6.186;2024-01-11T13:40:21;35.75;;;19.23;;
52542;SDS011;38449;52.696;6.186;2024-01-11T13:42:47;33.13;;;18.58;;
52542;SDS011;38449;52.696;6.186;2024-01-11T13:45:13;35.13;;;19.25;;
52542;SDS011;38449;52.696;6.186;2024-01-11T13:47:40;30.67;;;19.23;;
52542;SDS011;38449;52.696;6.186;2024-01-11T13:50:06;32.97;;;18.58;;
52542;SDS011;38449;52.696;6.186;2024-01-11T13:52:33;34.20;;;18.00;;
52542;SDS011;38449;52.696;6.186;2024-01-11T13:54:59;30.65;;;18.27;;
52542;SDS011;38449;52.696;6.186;2024-01-11T13:57:26;26.75;;;16.13;;
52542;SDS011;38449;52.696;6.186;2024-01-11T13:59:52;30.13;;;17.23;;
52542;SDS011;38449;52.696;6.186;2024-01-11T14:02:18;30.83;;;18.23;;
52542;SDS011;38449;52.696;6.186;2024-01-11T14:04:45;38.25;;;22.70;;
52542;SDS011;38449;52.696;6.186;2024-01-11T14:07:11;35.70;;;20.77;;
52542;SDS011;38449;52.696;6.186;2024-01-11T14:09:37;34.88;;;20.15;;
52542;SDS011;38449;52.696;6.186;2024-01-11T14:12:04;36.40;;;19.90;;
52542;SDS011;38449;52.696;6.186;2024-01-11T14:14:30;32.97;;;19.00;;
52542;SDS011;38449;52.696;6.186;2024-01-11T14:16:56;33.08;;;19.92;;
52542;SDS011;38449;52.696;6.186;2024-01-11T14:19:23;30.38;;;17.75;;
52542;SDS011;38449;52.696;6.186;2024-01-11T14:21:49;29.63;;;16.60;;
52542;SDS011;38449;52.696;6.186;2024-01-11T14:24:16;33.95;;;19.05;;
52542;SDS011;38449;52.696;6.186;2024-01-11T14:29:09;33.35;;;17.50;;
52542;SDS011;38449;52.696;6.186;2024-01-11T14:31:36;26.10;;;16.85;;
52542;SDS011;38449;52.696;6.186;2024-01-11T14:34:04;30.55;;;17.40;;
52542;SDS011;38449;52.696;6.186;2024-01-11T14:36:31;30.95;;;17.60;;
52542;SDS011;38449;52.696;6.186;2024-01-11T14:38:57;25.95;;;16.73;;
52542;SDS011;38449;52.696;6.186;2024-01-11T14:41:23;31.85;;;18.20;;
52542;SDS011;38449;52.696;6.186;2024-01-11T14:43:49;26.52;;;15.18;;
52542;SDS011;38449;52.696;6.186;2024-01-11T14:46:15;24.88;;;15.05;;
52542;SDS011;38449;52.696;6.186;2024-01-11T14:48:43;27.30;;;15.15;;
52542;SDS011;38449;52.696;6.186;2024-01-11T14:51:09;25.40;;;15.25;;
52542;SDS011;38449;52.696;6.186;2024-01-11T14:53:36;25.52;;;15.07;;
52542;SDS011;38449;52.696;6.186;2024-01-11T14:56:03;23.88;;;14.82;;
52542;SDS011;38449;52.696;6.186;2024-01-11T14:58:30;24.15;;;15.57;;
52542;SDS011;38449;52.696;6.186;2024-01-11T15:00:57;23.85;;;14.63;;
52542;SDS011;38449;52.696;6.186;2024-01-11T15:03:23;24.27;;;14.73;;
52542;SDS011;38449;52.696;6.186;2024-01-11T15:05:53;26.63;;;14.98;;
52542;SDS011;38449;52.696;6.186;2024-01-11T15:08:20;24.55;;;15.77;;
52542;SDS011;38449;52.696;6.186;2024-01-11T15:10:46;25.35;;;14.52;;
52542;SDS011;38449;52.696;6.186;2024-01-11T15:13:14;25.33;;;15.07;;
52542;SDS011;38449;52.696;6.186;2024-01-11T15:15:40;28.10;;;16.40;;
52542;SDS011;38449;52.696;6.186;2024-01-11T15:18:06;32.95;;;16.58;;
52542;SDS011;38449;52.696;6.186;2024-01-11T15:20:33;31.73;;;16.75;;
52542;SDS011;38449;52.696;6.186;2024-01-11T15:25:25;33.33;;;18.67;;
52542;SDS011;38449;52.696;6.186;2024-01-11T15:27:53;32.97;;;18.75;;
52542;SDS011;38449;52.696;6.186;2024-01-11T15:30:19;30.65;;;17.33;;
52542;SDS011;38449;52.696;6.186;2024-01-11T15:32:45;29.88;;;18.13;;
52542;SDS011;38449;52.696;6.186;2024-01-11T15:35:12;26.40;;;15.50;;
52542;SDS011;38449;52.696;6.186;2024-01-11T15:37:38;29.08;;;15.20;;
52542;SDS011;38449;52.696;6.186;2024-01-11T15:40:04;26.77;;;15.32;;
52542;SDS011;38449;52.696;6.186;2024-01-11T15:42:32;22.92;;;12.98;;
52542;SDS011;38449;52.696;6.186;2024-01-11T15:44:58;21.67;;;12.32;;